Metar Aeropuerto Ibiza
Despejado
Despejado
STATION : LEIB
METAR : 2018/07/19 19:00 LEIB 191900Z 09004KT 060V140 CAVOK 26/21 Q1013 NOSIG
WINDMPH : E at 5 mph
WIND : E at 5 mph (7 km/h)
VISIBILITY : greater than 7 miles (10 km)
CONDITIONS : Clear
TEMP : 79°F (26°C)
DEWPT : 70°F (21°C)
HUMIDITY : 74%
BAROMETER : 29.91 inHg (1013 hPa)
RAW-METAR : 2018/07/19 19:00 LEIB 191900Z 09004KT 060V140 CAVOK 26/21 Q1013 NOSIG
 Publicidad